sensor_id;sensor_type;location;lat;lon;timestamp;P1;durP1;ratioP1;P2;durP2;ratioP2
69305;SDS011;56427;51.580;4.656;2022-11-21T00:02:20;10.87;;;1.77;;
69305;SDS011;56427;51.580;4.656;2022-11-21T00:04:45;13.93;;;2.43;;
69305;SDS011;56427;51.580;4.656;2022-11-21T00:07:11;13.20;;;2.23;;
69305;SDS011;56427;51.580;4.656;2022-11-21T00:09:36;19.03;;;2.20;;
69305;SDS011;56427;51.580;4.656;2022-11-21T00:12:01;10.83;;;2.00;;
69305;SDS011;56427;51.580;4.656;2022-11-21T00:14:26;11.50;;;2.57;;
69305;SDS011;56427;51.580;4.656;2022-11-21T00:16:52;16.53;;;2.00;;
69305;SDS011;56427;51.580;4.656;2022-11-21T00:19:17;16.27;;;2.53;;
69305;SDS011;56427;51.580;4.656;2022-11-21T00:21:42;14.77;;;2.03;;
69305;SDS011;56427;51.580;4.656;2022-11-21T00:24:08;12.57;;;2.53;;
69305;SDS011;56427;51.580;4.656;2022-11-21T00:26:34;10.80;;;2.25;;
69305;SDS011;56427;51.580;4.656;2022-11-21T00:29:01;19.25;;;3.10;;
69305;SDS011;56427;51.580;4.656;2022-11-21T00:31:26;8.97;;;2.20;;
69305;SDS011;56427;51.580;4.656;2022-11-21T00:33:52;14.87;;;1.97;;
69305;SDS011;56427;51.580;4.656;2022-11-21T00:36:17;9.70;;;2.10;;
69305;SDS011;56427;51.580;4.656;2022-11-21T00:38:42;10.87;;;2.70;;
69305;SDS011;56427;51.580;4.656;2022-11-21T00:41:08;13.45;;;2.35;;
69305;SDS011;56427;51.580;4.656;2022-11-21T00:43:33;14.57;;;3.20;;
69305;SDS011;56427;51.580;4.656;2022-11-21T00:45:59;12.53;;;2.57;;
69305;SDS011;56427;51.580;4.656;2022-11-21T00:48:26;16.00;;;2.75;;
69305;SDS011;56427;51.580;4.656;2022-11-21T00:50:52;19.42;;;2.78;;
69305;SDS011;56427;51.580;4.656;2022-11-21T00:53:17;8.57;;;2.13;;
69305;SDS011;56427;51.580;4.656;2022-11-21T00:55:42;12.13;;;2.70;;
69305;SDS011;56427;51.580;4.656;2022-11-21T00:58:08;14.03;;;2.80;;
69305;SDS011;56427;51.580;4.656;2022-11-21T01:00:33;14.43;;;2.93;;
69305;SDS011;56427;51.580;4.656;2022-11-21T01:02:58;19.97;;;3.73;;
69305;SDS011;56427;51.580;4.656;2022-11-21T01:05:25;13.98;;;3.00;;
69305;SDS011;56427;51.580;4.656;2022-11-21T01:07:50;11.80;;;2.23;;
69305;SDS011;56427;51.580;4.656;2022-11-21T01:10:15;11.93;;;2.77;;
69305;SDS011;56427;51.580;4.656;2022-11-21T01:12:40;13.10;;;3.40;;
69305;SDS011;56427;51.580;4.656;2022-11-21T01:15:07;15.57;;;2.92;;
69305;SDS011;56427;51.580;4.656;2022-11-21T01:17:33;15.57;;;3.20;;
69305;SDS011;56427;51.580;4.656;2022-11-21T01:19:58;15.90;;;3.00;;
69305;SDS011;56427;51.580;4.656;2022-11-21T01:22:23;11.40;;;3.00;;
69305;SDS011;56427;51.580;4.656;2022-11-21T01:24:49;14.27;;;3.03;;
69305;SDS011;56427;51.580;4.656;2022-11-21T01:27:14;9.87;;;3.30;;
69305;SDS011;56427;51.580;4.656;2022-11-21T01:29:39;11.63;;;2.87;;
69305;SDS011;56427;51.580;4.656;2022-11-21T01:32:05;11.13;;;2.97;;
69305;SDS011;56427;51.580;4.656;2022-11-21T01:34:31;7.35;;;3.17;;
69305;SDS011;56427;51.580;4.656;2022-11-21T01:36:56;14.17;;;3.27;;
69305;SDS011;56427;51.580;4.656;2022-11-21T01:39:22;14.50;;;3.53;;
69305;SDS011;56427;51.580;4.656;2022-11-21T01:41:47;11.68;;;3.60;;
69305;SDS011;56427;51.580;4.656;2022-11-21T01:44:17;14.80;;;3.60;;
69305;SDS011;56427;51.580;4.656;2022-11-21T01:46:45;15.60;;;3.47;;
69305;SDS011;56427;51.580;4.656;2022-11-21T01:49:12;12.70;;;3.58;;
69305;SDS011;56427;51.580;4.656;2022-11-21T01:51:50;11.15;;;3.83;;
69305;SDS011;56427;51.580;4.656;2022-11-21T01:54:32;9.93;;;3.08;;
69305;SDS011;56427;51.580;4.656;2022-11-21T01:59:57;10.47;;;3.43;;
69305;SDS011;56427;51.580;4.656;2022-11-21T02:02:32;15.85;;;4.07;;
69305;SDS011;56427;51.580;4.656;2022-11-21T02:05:00;18.65;;;3.45;;
69305;SDS011;56427;51.580;4.656;2022-11-21T02:07:27;14.70;;;3.58;;
69305;SDS011;56427;51.580;4.656;2022-11-21T02:09:57;14.50;;;3.30;;
69305;SDS011;56427;51.580;4.656;2022-11-21T02:12:36;11.70;;;3.57;;
69305;SDS011;56427;51.580;4.656;2022-11-21T02:15:10;14.95;;;3.95;;
69305;SDS011;56427;51.580;4.656;2022-11-21T02:17:36;14.10;;;3.75;;
69305;SDS011;56427;51.580;4.656;2022-11-21T02:20:02;13.17;;;3.90;;
69305;SDS011;56427;51.580;4.656;2022-11-21T02:22:33;21.67;;;3.97;;
69305;SDS011;56427;51.580;4.656;2022-11-21T02:25:10;16.63;;;3.70;;
69305;SDS011;56427;51.580;4.656;2022-11-21T02:27:38;16.90;;;4.07;;
69305;SDS011;56427;51.580;4.656;2022-11-21T02:30:04;14.98;;;4.35;;
69305;SDS011;56427;51.580;4.656;2022-11-21T02:32:37;13.77;;;4.22;;
69305;SDS011;56427;51.580;4.656;2022-11-21T02:35:05;11.80;;;3.60;;
69305;SDS011;56427;51.580;4.656;2022-11-21T02:37:31;22.52;;;3.95;;
69305;SDS011;56427;51.580;4.656;2022-11-21T02:39:59;16.85;;;3.88;;
69305;SDS011;56427;51.580;4.656;2022-11-21T02:45:17;15.52;;;3.83;;
69305;SDS011;56427;51.580;4.656;2022-11-21T02:47:45;9.63;;;3.70;;
69305;SDS011;56427;51.580;4.656;2022-11-21T02:52:49;16.23;;;3.60;;
69305;SDS011;56427;51.580;4.656;2022-11-21T02:55:14;16.47;;;4.77;;
69305;SDS011;56427;51.580;4.656;2022-11-21T02:57:40;10.37;;;3.40;;
69305;SDS011;56427;51.580;4.656;2022-11-21T03:00:06;15.15;;;3.20;;
69305;SDS011;56427;51.580;4.656;2022-11-21T03:02:33;13.88;;;3.50;;
69305;SDS011;56427;51.580;4.656;2022-11-21T03:04:58;13.63;;;3.97;;
69305;SDS011;56427;51.580;4.656;2022-11-21T03:07:24;17.80;;;4.40;;
69305;SDS011;56427;51.580;4.656;2022-11-21T03:09:49;24.47;;;4.17;;
69305;SDS011;56427;51.580;4.656;2022-11-21T03:12:14;12.73;;;3.50;;
69305;SDS011;56427;51.580;4.656;2022-11-21T03:14:40;16.90;;;3.28;;
69305;SDS011;56427;51.580;4.656;2022-11-21T03:17:05;12.43;;;3.60;;
69305;SDS011;56427;51.580;4.656;2022-11-21T03:19:30;12.63;;;3.40;;
69305;SDS011;56427;51.580;4.656;2022-11-21T03:21:55;13.43;;;3.50;;
69305;SDS011;56427;51.580;4.656;2022-11-21T03:24:21;12.03;;;3.77;;
69305;SDS011;56427;51.580;4.656;2022-11-21T03:26:46;15.10;;;3.43;;
69305;SDS011;56427;51.580;4.656;2022-11-21T03:29:12;14.57;;;4.10;;
69305;SDS011;56427;51.580;4.656;2022-11-21T03:31:37;15.85;;;3.60;;
69305;SDS011;56427;51.580;4.656;2022-11-21T03:34:02;12.83;;;3.77;;
69305;SDS011;56427;51.580;4.656;2022-11-21T03:36:28;12.63;;;4.00;;
69305;SDS011;56427;51.580;4.656;2022-11-21T03:38:54;12.27;;;3.87;;
69305;SDS011;56427;51.580;4.656;2022-11-21T03:41:21;8.38;;;3.33;;
69305;SDS011;56427;51.580;4.656;2022-11-21T03:43:56;15.10;;;3.65;;
69305;SDS011;56427;51.580;4.656;2022-11-21T03:46:24;15.02;;;4.28;;
69305;SDS011;56427;51.580;4.656;2022-11-21T03:48:50;15.35;;;3.78;;
69305;SDS011;56427;51.580;4.656;2022-11-21T03:51:15;11.93;;;3.40;;
69305;SDS011;56427;51.580;4.656;2022-11-21T03:53:40;10.80;;;3.50;;
69305;SDS011;56427;51.580;4.656;2022-11-21T03:56:06;11.77;;;3.27;;
69305;SDS011;56427;51.580;4.656;2022-11-21T03:58:31;15.87;;;3.40;;
69305;SDS011;56427;51.580;4.656;2022-11-21T04:00:56;12.85;;;3.38;;
69305;SDS011;56427;51.580;4.656;2022-11-21T04:03:22;12.45;;;3.70;;
69305;SDS011;56427;51.580;4.656;2022-11-21T04:05:47;10.48;;;3.45;;
69305;SDS011;56427;51.580;4.656;2022-11-21T04:08:13;13.00;;;3.93;;
69305;SDS011;56427;51.580;4.656;2022-11-21T04:10:38;11.57;;;3.53;;
69305;SDS011;56427;51.580;4.656;2022-11-21T04:13:03;11.23;;;3.70;;
69305;SDS011;56427;51.580;4.656;2022-11-21T04:15:28;13.20;;;3.83;;
69305;SDS011;56427;51.580;4.656;2022-11-21T04:17:54;11.97;;;4.13;;
69305;SDS011;56427;51.580;4.656;2022-11-21T04:20:19;15.83;;;4.63;;
69305;SDS011;56427;51.580;4.656;2022-11-21T04:22:44;16.57;;;4.37;;
69305;SDS011;56427;51.580;4.656;2022-11-21T04:25:10;15.00;;;4.47;;
69305;SDS011;56427;51.580;4.656;2022-11-21T04:27:38;13.88;;;4.32;;
69305;SDS011;56427;51.580;4.656;2022-11-21T04:30:04;11.00;;;3.73;;
69305;SDS011;56427;51.580;4.656;2022-11-21T04:32:30;14.95;;;3.50;;
69305;SDS011;56427;51.580;4.656;2022-11-21T04:34:55;14.03;;;4.67;;
69305;SDS011;56427;51.580;4.656;2022-11-21T04:37:20;14.93;;;4.17;;
69305;SDS011;56427;51.580;4.656;2022-11-21T04:39:46;15.07;;;3.90;;
69305;SDS011;56427;51.580;4.656;2022-11-21T04:42:11;13.40;;;4.20;;
69305;SDS011;56427;51.580;4.656;2022-11-21T04:44:36;10.77;;;3.47;;
69305;SDS011;56427;51.580;4.656;2022-11-21T04:47:01;14.90;;;4.22;;
69305;SDS011;56427;51.580;4.656;2022-11-21T04:49:27;9.18;;;3.97;;
69305;SDS011;56427;51.580;4.656;2022-11-21T04:51:52;12.70;;;3.87;;
69305;SDS011;56427;51.580;4.656;2022-11-21T04:54:17;9.23;;;4.07;;
69305;SDS011;56427;51.580;4.656;2022-11-21T04:56:42;12.87;;;3.97;;
69305;SDS011;56427;51.580;4.656;2022-11-21T04:59:08;13.00;;;3.93;;
69305;SDS011;56427;51.580;4.656;2022-11-21T05:01:36;11.93;;;4.70;;
69305;SDS011;56427;51.580;4.656;2022-11-21T05:04:01;19.55;;;5.20;;
69305;SDS011;56427;51.580;4.656;2022-11-21T05:06:27;18.20;;;5.13;;
69305;SDS011;56427;51.580;4.656;2022-11-21T05:08:52;18.23;;;5.80;;
69305;SDS011;56427;51.580;4.656;2022-11-21T05:11:17;17.63;;;6.37;;
69305;SDS011;56427;51.580;4.656;2022-11-21T05:14:01;17.33;;;6.60;;
69305;SDS011;56427;51.580;4.656;2022-11-21T05:16:26;20.60;;;6.97;;
69305;SDS011;56427;51.580;4.656;2022-11-21T05:18:51;21.77;;;7.70;;
69305;SDS011;56427;51.580;4.656;2022-11-21T05:21:16;23.93;;;8.80;;
69305;SDS011;56427;51.580;4.656;2022-11-21T05:23:42;21.63;;;7.60;;
69305;SDS011;56427;51.580;4.656;2022-11-21T05:26:07;27.67;;;9.03;;
69305;SDS011;56427;51.580;4.656;2022-11-21T05:28:32;23.43;;;8.20;;
69305;SDS011;56427;51.580;4.656;2022-11-21T05:30:57;27.07;;;8.97;;
69305;SDS011;56427;51.580;4.656;2022-11-21T05:33:23;21.57;;;8.80;;
69305;SDS011;56427;51.580;4.656;2022-11-21T05:35:48;24.27;;;9.27;;
69305;SDS011;56427;51.580;4.656;2022-11-21T05:38:13;28.50;;;9.50;;
69305;SDS011;56427;51.580;4.656;2022-11-21T05:40:39;22.17;;;8.20;;
69305;SDS011;56427;51.580;4.656;2022-11-21T05:43:04;22.17;;;8.65;;
69305;SDS011;56427;51.580;4.656;2022-11-21T05:45:48;27.42;;;9.98;;
69305;SDS011;56427;51.580;4.656;2022-11-21T05:48:14;20.00;;;8.07;;
69305;SDS011;56427;51.580;4.656;2022-11-21T05:50:39;23.70;;;8.70;;
69305;SDS011;56427;51.580;4.656;2022-11-21T05:53:04;28.97;;;9.37;;
69305;SDS011;56427;51.580;4.656;2022-11-21T05:55:30;23.87;;;9.33;;
69305;SDS011;56427;51.580;4.656;2022-11-21T05:57:58;18.70;;;8.25;;
69305;SDS011;56427;51.580;4.656;2022-11-21T06:00:23;23.98;;;10.43;;
69305;SDS011;56427;51.580;4.656;2022-11-21T06:02:49;19.43;;;9.73;;
69305;SDS011;56427;51.580;4.656;2022-11-21T06:05:33;21.88;;;10.52;;
69305;SDS011;56427;51.580;4.656;2022-11-21T06:07:58;29.67;;;10.90;;
69305;SDS011;56427;51.580;4.656;2022-11-21T06:10:23;24.83;;;10.30;;
69305;SDS011;56427;51.580;4.656;2022-11-21T06:12:48;22.40;;;10.83;;
69305;SDS011;56427;51.580;4.656;2022-11-21T06:15:14;24.20;;;9.73;;
69305;SDS011;56427;51.580;4.656;2022-11-21T06:17:39;26.20;;;10.53;;
69305;SDS011;56427;51.580;4.656;2022-11-21T06:20:04;25.70;;;12.37;;
69305;SDS011;56427;51.580;4.656;2022-11-21T06:22:30;38.40;;;13.48;;
69305;SDS011;56427;51.580;4.656;2022-11-21T06:25:22;26.13;;;12.00;;
69305;SDS011;56427;51.580;4.656;2022-11-21T06:27:47;27.33;;;11.43;;
69305;SDS011;56427;51.580;4.656;2022-11-21T06:30:16;22.67;;;10.87;;
69305;SDS011;56427;51.580;4.656;2022-11-21T06:32:41;28.67;;;12.23;;
69305;SDS011;56427;51.580;4.656;2022-11-21T06:35:06;28.83;;;12.37;;
69305;SDS011;56427;51.580;4.656;2022-11-21T06:37:31;24.95;;;11.95;;
69305;SDS011;56427;51.580;4.656;2022-11-21T06:39:57;32.83;;;12.67;;
69305;SDS011;56427;51.580;4.656;2022-11-21T06:42:23;27.57;;;12.20;;
69305;SDS011;56427;51.580;4.656;2022-11-21T06:44:48;27.47;;;12.57;;
69305;SDS011;56427;51.580;4.656;2022-11-21T06:47:13;30.90;;;11.67;;
69305;SDS011;56427;51.580;4.656;2022-11-21T06:49:38;23.70;;;11.07;;
69305;SDS011;56427;51.580;4.656;2022-11-21T06:52:04;24.07;;;11.07;;
69305;SDS011;56427;51.580;4.656;2022-11-21T06:54:29;27.40;;;12.67;;
69305;SDS011;56427;51.580;4.656;2022-11-21T06:56:54;22.67;;;9.45;;
69305;SDS011;56427;51.580;4.656;2022-11-21T06:59:20;19.13;;;10.63;;
69305;SDS011;56427;51.580;4.656;2022-11-21T07:01:48;21.00;;;9.67;;
69305;SDS011;56427;51.580;4.656;2022-11-21T07:04:13;26.20;;;10.20;;
69305;SDS011;56427;51.580;4.656;2022-11-21T07:06:39;29.67;;;10.03;;
69305;SDS011;56427;51.580;4.656;2022-11-21T07:09:04;23.43;;;9.53;;
69305;SDS011;56427;51.580;4.656;2022-11-21T07:11:29;25.87;;;9.80;;
69305;SDS011;56427;51.580;4.656;2022-11-21T07:13:54;23.50;;;9.83;;
69305;SDS011;56427;51.580;4.656;2022-11-21T07:16:20;17.77;;;9.00;;
69305;SDS011;56427;51.580;4.656;2022-11-21T07:18:46;20.60;;;9.63;;
69305;SDS011;56427;51.580;4.656;2022-11-21T07:21:11;24.63;;;9.30;;
69305;SDS011;56427;51.580;4.656;2022-11-21T07:23:36;25.10;;;9.70;;
69305;SDS011;56427;51.580;4.656;2022-11-21T07:26:03;26.47;;;10.30;;
69305;SDS011;56427;51.580;4.656;2022-11-21T07:28:32;20.40;;;8.57;;
69305;SDS011;56427;51.580;4.656;2022-11-21T07:30:58;21.02;;;8.93;;
69305;SDS011;56427;51.580;4.656;2022-11-21T07:33:25;23.50;;;9.25;;
69305;SDS011;56427;51.580;4.656;2022-11-21T07:35:51;18.25;;;8.90;;
69305;SDS011;56427;51.580;4.656;2022-11-21T07:38:16;17.27;;;8.30;;
69305;SDS011;56427;51.580;4.656;2022-11-21T07:40:42;23.97;;;8.57;;
69305;SDS011;56427;51.580;4.656;2022-11-21T07:43:08;18.77;;;8.00;;
69305;SDS011;56427;51.580;4.656;2022-11-21T07:45:35;18.90;;;8.48;;
69305;SDS011;56427;51.580;4.656;2022-11-21T07:48:00;28.73;;;9.90;;
69305;SDS011;56427;51.580;4.656;2022-11-21T07:50:27;26.40;;;8.95;;
69305;SDS011;56427;51.580;4.656;2022-11-21T07:52:59;19.63;;;8.97;;
69305;SDS011;56427;51.580;4.656;2022-11-21T07:55:26;23.85;;;9.20;;
69305;SDS011;56427;51.580;4.656;2022-11-21T07:57:58;18.13;;;8.60;;
69305;SDS011;56427;51.580;4.656;2022-11-21T08:00:34;19.95;;;9.10;;
69305;SDS011;56427;51.580;4.656;2022-11-21T08:03:05;19.85;;;8.82;;
69305;SDS011;56427;51.580;4.656;2022-11-21T08:05:34;17.13;;;8.20;;
69305;SDS011;56427;51.580;4.656;2022-11-21T08:08:01;18.00;;;8.32;;
69305;SDS011;56427;51.580;4.656;2022-11-21T08:10:26;21.50;;;7.77;;
69305;SDS011;56427;51.580;4.656;2022-11-21T08:12:51;25.10;;;8.30;;
69305;SDS011;56427;51.580;4.656;2022-11-21T08:15:17;21.13;;;7.10;;
69305;SDS011;56427;51.580;4.656;2022-11-21T08:17:42;19.87;;;8.13;;
69305;SDS011;56427;51.580;4.656;2022-11-21T08:20:08;20.60;;;7.80;;
69305;SDS011;56427;51.580;4.656;2022-11-21T08:22:37;20.67;;;8.88;;
69305;SDS011;56427;51.580;4.656;2022-11-21T08:25:04;13.07;;;6.75;;
69305;SDS011;56427;51.580;4.656;2022-11-21T08:27:30;17.63;;;7.35;;
69305;SDS011;56427;51.580;4.656;2022-11-21T08:29:56;19.07;;;7.23;;
69305;SDS011;56427;51.580;4.656;2022-11-21T08:32:21;15.57;;;6.40;;
69305;SDS011;56427;51.580;4.656;2022-11-21T08:34:46;14.30;;;7.00;;
69305;SDS011;56427;51.580;4.656;2022-11-21T08:37:11;16.50;;;6.78;;
69305;SDS011;56427;51.580;4.656;2022-11-21T08:39:37;17.57;;;6.57;;
69305;SDS011;56427;51.580;4.656;2022-11-21T08:42:02;16.13;;;6.93;;
69305;SDS011;56427;51.580;4.656;2022-11-21T08:44:28;16.97;;;6.90;;
69305;SDS011;56427;51.580;4.656;2022-11-21T08:46:54;16.02;;;6.72;;
69305;SDS011;56427;51.580;4.656;2022-11-21T08:49:20;13.60;;;5.87;;
69305;SDS011;56427;51.580;4.656;2022-11-21T08:51:45;12.55;;;6.35;;
69305;SDS011;56427;51.580;4.656;2022-11-21T08:54:15;14.32;;;6.45;;
69305;SDS011;56427;51.580;4.656;2022-11-21T08:56:41;14.98;;;6.68;;
69305;SDS011;56427;51.580;4.656;2022-11-21T08:59:06;13.20;;;5.70;;
69305;SDS011;56427;51.580;4.656;2022-11-21T09:01:32;15.10;;;5.90;;
69305;SDS011;56427;51.580;4.656;2022-11-21T09:03:57;10.67;;;5.03;;
69305;SDS011;56427;51.580;4.656;2022-11-21T09:06:22;14.77;;;5.37;;
69305;SDS011;56427;51.580;4.656;2022-11-21T09:08:48;10.30;;;4.90;;
69305;SDS011;56427;51.580;4.656;2022-11-21T09:11:13;15.97;;;5.57;;
69305;SDS011;56427;51.580;4.656;2022-11-21T09:13:39;16.80;;;4.50;;
69305;SDS011;56427;51.580;4.656;2022-11-21T09:16:04;15.87;;;5.07;;
69305;SDS011;56427;51.580;4.656;2022-11-21T09:18:50;14.70;;;5.22;;
69305;SDS011;56427;51.580;4.656;2022-11-21T09:21:17;15.15;;;4.97;;
69305;SDS011;56427;51.580;4.656;2022-11-21T09:23:43;13.52;;;4.65;;
69305;SDS011;56427;51.580;4.656;2022-11-21T09:26:09;10.82;;;4.25;;
69305;SDS011;56427;51.580;4.656;2022-11-21T09:28:35;11.23;;;4.13;;
69305;SDS011;56427;51.580;4.656;2022-11-21T09:31:01;9.57;;;4.22;;
69305;SDS011;56427;51.580;4.656;2022-11-21T09:33:27;12.43;;;4.57;;
69305;SDS011;56427;51.580;4.656;2022-11-21T09:35:52;11.47;;;4.77;;
69305;SDS011;56427;51.580;4.656;2022-11-21T09:38:18;11.73;;;4.27;;
69305;SDS011;56427;51.580;4.656;2022-11-21T09:40:43;10.03;;;4.00;;
69305;SDS011;56427;51.580;4.656;2022-11-21T09:43:26;16.65;;;5.22;;
69305;SDS011;56427;51.580;4.656;2022-11-21T09:51:17;8.70;;;4.20;;
69305;SDS011;56427;51.580;4.656;2022-11-21T09:56:36;10.98;;;3.83;;
69305;SDS011;56427;51.580;4.656;2022-11-21T10:01:55;7.53;;;3.40;;
69305;SDS011;56427;51.580;4.656;2022-11-21T10:04:20;6.83;;;2.80;;
69305;SDS011;56427;51.580;4.656;2022-11-21T10:07:05;10.17;;;3.43;;
69305;SDS011;56427;51.580;4.656;2022-11-21T10:17:48;10.43;;;3.43;;
69305;SDS011;56427;51.580;4.656;2022-11-21T10:31:35;8.33;;;2.87;;
69305;SDS011;56427;51.580;4.656;2022-11-21T10:34:08;13.43;;;2.90;;
69305;SDS011;56427;51.580;4.656;2022-11-21T10:36:36;10.35;;;3.10;;
69305;SDS011;56427;51.580;4.656;2022-11-21T10:42:11;7.93;;;3.00;;
69305;SDS011;56427;51.580;4.656;2022-11-21T10:44:50;13.00;;;3.37;;
69305;SDS011;56427;51.580;4.656;2022-11-21T10:47:35;11.23;;;2.92;;
69305;SDS011;56427;51.580;4.656;2022-11-21T10:52:38;11.73;;;2.55;;
69305;SDS011;56427;51.580;4.656;2022-11-21T10:55:10;10.27;;;2.67;;
69305;SDS011;56427;51.580;4.656;2022-11-21T10:57:38;12.77;;;2.57;;
69305;SDS011;56427;51.580;4.656;2022-11-21T11:02:56;10.95;;;2.63;;
69305;SDS011;56427;51.580;4.656;2022-11-21T11:05:30;8.85;;;2.50;;
69305;SDS011;56427;51.580;4.656;2022-11-21T11:10:34;10.07;;;2.50;;
69305;SDS011;56427;51.580;4.656;2022-11-21T11:13:10;6.70;;;2.03;;
69305;SDS011;56427;51.580;4.656;2022-11-21T11:18:34;10.25;;;2.53;;
69305;SDS011;56427;51.580;4.656;2022-11-21T11:21:19;12.07;;;3.00;;
69305;SDS011;56427;51.580;4.656;2022-11-21T11:23:47;10.10;;;2.13;;
69305;SDS011;56427;51.580;4.656;2022-11-21T11:26:17;12.57;;;2.38;;
69305;SDS011;56427;51.580;4.656;2022-11-21T11:28:52;8.75;;;2.20;;
69305;SDS011;56427;51.580;4.656;2022-11-21T11:31:18;8.32;;;2.00;;
69305;SDS011;56427;51.580;4.656;2022-11-21T11:36:18;7.63;;;2.17;;
69305;SDS011;56427;51.580;4.656;2022-11-21T11:38:56;9.82;;;2.17;;
69305;SDS011;56427;51.580;4.656;2022-11-21T11:44:21;8.27;;;2.22;;
69305;SDS011;56427;51.580;4.656;2022-11-21T11:47:22;12.38;;;2.38;;
69305;SDS011;56427;51.580;4.656;2022-11-21T11:49:54;10.93;;;2.85;;
69305;SDS011;56427;51.580;4.656;2022-11-21T11:58:25;9.07;;;2.72;;
69305;SDS011;56427;51.580;4.656;2022-11-21T12:03:35;12.43;;;3.40;;
69305;SDS011;56427;51.580;4.656;2022-11-21T12:11:36;7.35;;;2.22;;
69305;SDS011;56427;51.580;4.656;2022-11-21T12:17:33;7.20;;;2.45;;
69305;SDS011;56427;51.580;4.656;2022-11-21T12:20:07;12.52;;;3.17;;
69305;SDS011;56427;51.580;4.656;2022-11-21T12:22:43;12.57;;;2.95;;
69305;SDS011;56427;51.580;4.656;2022-11-21T12:25:11;11.55;;;3.28;;
69305;SDS011;56427;51.580;4.656;2022-11-21T12:27:37;11.93;;;3.08;;
69305;SDS011;56427;51.580;4.656;2022-11-21T12:30:08;6.68;;;2.30;;
69305;SDS011;56427;51.580;4.656;2022-11-21T12:32:46;10.82;;;2.58;;
69305;SDS011;56427;51.580;4.656;2022-11-21T12:49:41;9.55;;;2.60;;
69305;SDS011;56427;51.580;4.656;2022-11-21T12:52:45;7.80;;;2.80;;
69305;SDS011;56427;51.580;4.656;2022-11-21T12:55:38;14.57;;;2.88;;
69305;SDS011;56427;51.580;4.656;2022-11-21T13:00:42;7.95;;;2.58;;
69305;SDS011;56427;51.580;4.656;2022-11-21T13:05:57;9.02;;;2.47;;
69305;SDS011;56427;51.580;4.656;2022-11-21T13:08:24;11.50;;;2.38;;
69305;SDS011;56427;51.580;4.656;2022-11-21T13:13:47;10.57;;;2.47;;
69305;SDS011;56427;51.580;4.656;2022-11-21T13:16:16;10.90;;;3.05;;
69305;SDS011;56427;51.580;4.656;2022-11-21T13:19:00;8.75;;;2.47;;
69305;SDS011;56427;51.580;4.656;2022-11-21T13:21:43;7.82;;;2.15;;
69305;SDS011;56427;51.580;4.656;2022-11-21T13:24:12;9.30;;;2.83;;
69305;SDS011;56427;51.580;4.656;2022-11-21T13:27:30;10.38;;;2.90;;
69305;SDS011;56427;51.580;4.656;2022-11-21T13:45:44;13.90;;;3.70;;
69305;SDS011;56427;51.580;4.656;2022-11-21T13:48:17;11.88;;;3.45;;
69305;SDS011;56427;51.580;4.656;2022-11-21T13:51:36;11.23;;;4.03;;
69305;SDS011;56427;51.580;4.656;2022-11-21T13:59:35;9.30;;;4.15;;
69305;SDS011;56427;51.580;4.656;2022-11-21T14:02:10;14.75;;;4.53;;
69305;SDS011;56427;51.580;4.656;2022-11-21T14:05:04;17.98;;;4.88;;
69305;SDS011;56427;51.580;4.656;2022-11-21T14:07:35;11.52;;;4.13;;
69305;SDS011;56427;51.580;4.656;2022-11-21T14:10:02;16.27;;;5.00;;
69305;SDS011;56427;51.580;4.656;2022-11-21T14:12:41;10.65;;;4.47;;
69305;SDS011;56427;51.580;4.656;2022-11-21T14:17:57;11.77;;;4.15;;
69305;SDS011;56427;51.580;4.656;2022-11-21T14:20:27;12.93;;;4.78;;
69305;SDS011;56427;51.580;4.656;2022-11-21T14:26:03;8.73;;;4.28;;
69305;SDS011;56427;51.580;4.656;2022-11-21T14:28:35;13.52;;;4.85;;
69305;SDS011;56427;51.580;4.656;2022-11-21T14:31:02;12.27;;;4.73;;
69305;SDS011;56427;51.580;4.656;2022-11-21T14:33:28;10.23;;;4.00;;
69305;SDS011;56427;51.580;4.656;2022-11-21T14:38:46;9.38;;;4.28;;
69305;SDS011;56427;51.580;4.656;2022-11-21T14:46:22;13.30;;;4.82;;
69305;SDS011;56427;51.580;4.656;2022-11-21T14:48:49;15.40;;;5.75;;
69305;SDS011;56427;51.580;4.656;2022-11-21T14:51:16;16.67;;;5.28;;
69305;SDS011;56427;51.580;4.656;2022-11-21T14:53:44;7.80;;;3.53;;
69305;SDS011;56427;51.580;4.656;2022-11-21T14:56:18;12.70;;;4.20;;
69305;SDS011;56427;51.580;4.656;2022-11-21T14:58:50;9.50;;;5.00;;
69305;SDS011;56427;51.580;4.656;2022-11-21T15:01:30;9.57;;;4.68;;
69305;SDS011;56427;51.580;4.656;2022-11-21T15:03:58;11.48;;;4.15;;
69305;SDS011;56427;51.580;4.656;2022-11-21T15:06:28;11.07;;;4.20;;
69305;SDS011;56427;51.580;4.656;2022-11-21T15:08:57;13.67;;;4.77;;
69305;SDS011;56427;51.580;4.656;2022-11-21T15:11:32;14.02;;;4.03;;
69305;SDS011;56427;51.580;4.656;2022-11-21T15:14:11;14.48;;;4.72;;
69305;SDS011;56427;51.580;4.656;2022-11-21T15:16:46;14.85;;;4.65;;
69305;SDS011;56427;51.580;4.656;2022-11-21T15:19:20;13.13;;;4.93;;
69305;SDS011;56427;51.580;4.656;2022-11-21T15:21:50;17.13;;;4.93;;
69305;SDS011;56427;51.580;4.656;2022-11-21T15:24:36;15.23;;;4.97;;
69305;SDS011;56427;51.580;4.656;2022-11-21T15:27:22;13.00;;;4.75;;
69305;SDS011;56427;51.580;4.656;2022-11-21T15:30:00;13.95;;;5.43;;
69305;SDS011;56427;51.580;4.656;2022-11-21T15:32:28;15.75;;;5.13;;
69305;SDS011;56427;51.580;4.656;2022-11-21T15:34:53;14.83;;;5.93;;
69305;SDS011;56427;51.580;4.656;2022-11-21T15:37:19;15.13;;;4.97;;
69305;SDS011;56427;51.580;4.656;2022-11-21T15:39:44;18.40;;;5.33;;
69305;SDS011;56427;51.580;4.656;2022-11-21T15:45:01;18.90;;;6.00;;
69305;SDS011;56427;51.580;4.656;2022-11-21T15:47:47;16.07;;;5.90;;
69305;SDS011;56427;51.580;4.656;2022-11-21T15:50:13;14.25;;;4.70;;
69305;SDS011;56427;51.580;4.656;2022-11-21T15:52:43;17.02;;;4.80;;
69305;SDS011;56427;51.580;4.656;2022-11-21T15:55:20;15.73;;;5.00;;
69305;SDS011;56427;51.580;4.656;2022-11-21T15:57:51;12.20;;;4.40;;
69305;SDS011;56427;51.580;4.656;2022-11-21T16:00:17;9.50;;;4.30;;
69305;SDS011;56427;51.580;4.656;2022-11-21T16:02:42;13.63;;;4.80;;
69305;SDS011;56427;51.580;4.656;2022-11-21T16:05:10;14.33;;;4.30;;
69305;SDS011;56427;51.580;4.656;2022-11-21T16:07:41;17.42;;;5.50;;
69305;SDS011;56427;51.580;4.656;2022-11-21T16:10:06;18.77;;;5.40;;
69305;SDS011;56427;51.580;4.656;2022-11-21T16:12:33;14.43;;;4.65;;
69305;SDS011;56427;51.580;4.656;2022-11-21T16:17:03;14.73;;;5.13;;
69305;SDS011;56427;51.580;4.656;2022-11-21T16:19:28;13.25;;;4.28;;
69305;SDS011;56427;51.580;4.656;2022-11-21T16:21:53;12.30;;;4.43;;
69305;SDS011;56427;51.580;4.656;2022-11-21T16:24:19;13.17;;;5.10;;
69305;SDS011;56427;51.580;4.656;2022-11-21T16:26:47;16.70;;;4.60;;
69305;SDS011;56427;51.580;4.656;2022-11-21T16:29:18;13.18;;;4.22;;
69305;SDS011;56427;51.580;4.656;2022-11-21T16:31:43;13.80;;;4.67;;
69305;SDS011;56427;51.580;4.656;2022-11-21T16:34:09;10.83;;;4.40;;
69305;SDS011;56427;51.580;4.656;2022-11-21T16:36:34;16.10;;;4.60;;
69305;SDS011;56427;51.580;4.656;2022-11-21T16:39:00;14.27;;;4.70;;
69305;SDS011;56427;51.580;4.656;2022-11-21T16:41:28;11.47;;;4.43;;
69305;SDS011;56427;51.580;4.656;2022-11-21T16:43:54;16.20;;;5.28;;
69305;SDS011;56427;51.580;4.656;2022-11-21T16:46:20;14.68;;;4.75;;
69305;SDS011;56427;51.580;4.656;2022-11-21T16:48:47;15.93;;;5.13;;
69305;SDS011;56427;51.580;4.656;2022-11-21T16:51:24;11.17;;;4.30;;
69305;SDS011;56427;51.580;4.656;2022-11-21T16:53:52;15.15;;;4.55;;
69305;SDS011;56427;51.580;4.656;2022-11-21T16:56:18;12.30;;;4.68;;
69305;SDS011;56427;51.580;4.656;2022-11-21T16:58:43;17.37;;;4.77;;
69305;SDS011;56427;51.580;4.656;2022-11-21T17:01:09;13.57;;;4.90;;
69305;SDS011;56427;51.580;4.656;2022-11-21T17:03:40;23.15;;;5.38;;